Time;durP1;ratioP1;P1;durP2;ratioP2;P2;SDS_P1;SDS_P2;PMS_P1;PMS_P2;Temp;Humidity;BMP_temperature;BMP_pressure;BME280_temperature;BME280_humidity;BME280_pressure;Samples;Min_cycle;Max_cycle;Signal;HPM_P1;HPM_P2
2022/10/08 00:00:57;;;;;;;10.98;3.28;;;12.40;99.90;;;;;;5089326;28;20047;-45
2022/10/08 00:03:24;;;;;;;;;;;12.30;99.90;;;;;;5090374;28;20036;-46
2022/10/08 00:06:03;;;;;;;15.68;2.78;;;12.40;99.90;;;;;;5091640;28;20335;-43
2022/10/08 00:08:32;;;;;;;12.18;2.75;;;12.10;99.90;;;;;;5093986;28;20471;-44
2022/10/08 00:11:01;;;;;;;10.13;2.90;;;12.30;99.90;;;;;;5094028;28;20034;-44
2022/10/08 00:13:39;;;;;;;13.88;3.63;;;12.20;99.90;;;;;;5094159;28;20051;-44
2022/10/08 00:16:11;;;;;;;12.18;3.50;;;12.30;99.90;;;;;;5093752;28;20032;-43
2022/10/08 00:18:38;;;;;;;15.73;3.65;;;12.20;99.90;;;;;;5094140;28;20043;-44
2022/10/08 00:21:13;;;;;;;12.63;3.47;;;12.30;99.90;;;;;;5093946;28;20040;-45
2022/10/08 00:23:39;;;;;;;13.57;3.97;;;12.30;99.90;;;;;;5094110;28;20028;-45
2022/10/08 00:26:06;;;;;;;14.88;3.60;;;12.30;99.90;;;;;;5092126;28;20051;-44
2022/10/08 00:28:35;;;;;;;12.48;4.20;;;12.30;99.90;;;;;;5093514;28;20115;-45
2022/10/08 00:31:07;;;;;;;15.02;4.05;;;12.30;99.90;;;;;;5093736;28;20040;-44
2022/10/08 00:33:35;;;;;;;11.30;4.30;;;12.30;99.90;;;;;;5093458;28;20040;-42
2022/10/08 00:36:11;;;;;;;16.38;5.53;;;12.20;99.90;;;;;;5093266;28;20040;-44
2022/10/08 00:38:37;;;;;;;13.13;4.07;;;12.40;99.90;;;;;;5093649;28;20075;-44
2022/10/08 00:41:05;;;;;;;17.85;5.68;;;12.40;99.90;;;;;;5093320;28;20040;-45
2022/10/08 00:43:42;;;;;;;13.88;4.85;;;12.50;99.90;;;;;;5093112;28;20036;-47
2022/10/08 00:46:36;;;;;;;12.55;5.35;;;12.20;99.90;;;;;;5093701;28;20043;-44
2022/10/08 00:49:10;;;;;;;13.25;4.93;;;12.40;99.90;;;;;;5092842;28;20032;-43
2022/10/08 00:51:37;;;;;;;;;;;12.10;99.90;;;;;;5092241;28;20963;-45
2022/10/08 00:54:06;;;;;;;16.35;4.93;;;12.30;99.90;;;;;;5093457;28;20287;-47
2022/10/08 00:56:36;;;;;;;13.32;5.13;;;12.30;99.90;;;;;;5093124;28;20475;-43
2022/10/08 00:59:02;;;;;;;11.63;5.38;;;12.10;99.90;;;;;;5093480;28;20040;-43
2022/10/08 01:01:28;;;;;;;12.52;5.93;;;12.30;99.90;;;;;;5091907;28;20031;-47
2022/10/08 01:03:55;;;;;;;9.27;4.53;;;12.20;99.90;;;;;;5093253;28;20111;-45
2022/10/08 01:06:29;;;;;;;9.75;5.07;;;12.10;99.90;;;;;;5092630;28;20040;-48
2022/10/08 01:09:03;;;;;;;12.30;4.55;;;12.40;99.90;;;;;;5092830;28;20119;-48
2022/10/08 01:12:12;;;;;;;13.25;4.50;;;12.30;99.90;;;;;;5092997;28;20062;-45
2022/10/08 01:14:59;;;;;;;9.32;4.68;;;12.10;99.90;;;;;;5092576;28;20402;-43
2022/10/08 01:17:30;;;;;;;10.38;4.88;;;12.30;99.90;;;;;;5090746;28;20127;-43
2022/10/08 01:20:28;;;;;;;12.95;4.20;;;12.10;99.90;;;;;;5092865;28;20040;-46
2022/10/08 01:23:12;;;;;;;10.90;4.32;;;12.10;99.90;;;;;;5049814;28;20036;-47
2022/10/08 01:25:54;;;;;;;9.60;3.85;;;12.00;99.90;;;;;;5092603;28;20036;-45
2022/10/08 01:28:35;;;;;;;10.23;4.45;;;11.90;99.90;;;;;;5092328;28;20497;-47
2022/10/08 01:31:13;;;;;;;12.88;3.90;;;12.00;99.90;;;;;;5092645;28;20544;-48
2022/10/08 01:34:21;;;;;;;10.43;4.70;;;12.10;99.90;;;;;;5092495;28;20036;-47
2022/10/08 01:36:50;;;;;;;10.02;3.90;;;11.90;99.90;;;;;;5091674;28;20047;-45
2022/10/08 01:39:18;;;;;;;11.45;4.70;;;12.00;99.90;;;;;;5092614;28;20072;-46
2022/10/08 01:42:06;;;;;;;9.73;3.60;;;12.00;99.90;;;;;;5092556;28;20475;-47
2022/10/08 01:44:39;;;;;;;13.30;4.20;;;11.80;99.90;;;;;;5092514;28;20387;-45
2022/10/08 01:47:10;;;;;;;10.35;3.85;;;11.90;99.90;;;;;;5092522;28;20051;-46
2022/10/08 01:49:42;;;;;;;10.05;3.92;;;11.70;99.90;;;;;;5092265;28;20600;-43
2022/10/08 01:52:15;;;;;;;8.80;2.67;;;11.70;99.90;;;;;;5090736;28;20040;-43
2022/10/08 01:54:43;;;;;;;9.25;3.30;;;11.90;99.90;;;;;;5091934;28;20032;-44
2022/10/08 01:57:10;;;;;;;7.15;2.85;;;11.60;99.90;;;;;;5091950;28;20125;-45
2022/10/08 01:59:53;;;;;;;10.15;3.03;;;11.80;99.90;;;;;;5091848;28;20046;-45
2022/10/08 02:02:22;;;;;;;7.72;2.95;;;11.80;99.90;;;;;;5091762;28;20044;-45
2022/10/08 02:04:50;;;;;;;6.45;2.42;;;11.70;99.90;;;;;;5091561;28;20475;-47
2022/10/08 02:07:23;;;;;;;7.53;2.40;;;11.60;99.90;;;;;;5091998;28;20517;-45
2022/10/08 02:09:52;;;;;;;8.27;2.40;;;11.80;99.90;;;;;;5091550;28;20036;-46
2022/10/08 02:12:21;;;;;;;6.80;1.90;;;11.60;99.90;;;;;;5091584;28;20032;-45
2022/10/08 02:14:51;;;;;;;6.50;2.00;;;11.40;99.90;;;;;;5091949;28;20040;-45
2022/10/08 02:17:38;;;;;;;6.05;2.03;;;11.70;99.90;;;;;;5091710;28;20050;-47
2022/10/08 02:20:18;;;;;;;9.43;2.40;;;11.40;99.90;;;;;;5091709;28;20356;-46
2022/10/08 02:23:07;;;;;;;5.90;2.40;;;11.40;99.90;;;;;;5090527;28;20048;-43
2022/10/08 02:25:58;;;;;;;6.88;2.25;;;11.60;99.90;;;;;;5090037;28;20036;-44
2022/10/08 02:28:49;;;;;;;8.32;2.35;;;11.50;99.90;;;;;;5090336;28;20100;-44
2022/10/08 02:31:34;;;;;;;7.13;2.30;;;11.40;99.90;;;;;;5091126;28;20405;-45
2022/10/08 02:34:11;;;;;;;8.75;2.55;;;11.20;99.90;;;;;;5091467;28;20164;-46
2022/10/08 02:36:41;;;;;;;6.88;2.38;;;11.40;99.90;;;;;;5090555;28;20068;-45
2022/10/08 02:39:10;;;;;;;7.25;2.38;;;11.10;99.90;;;;;;5091268;28;20043;-46
2022/10/08 02:41:45;;;;;;;6.93;2.40;;;11.30;99.90;;;;;;5091548;28;20364;-47
2022/10/08 02:44:16;;;;;;;8.48;2.67;;;11.40;99.90;;;;;;5091690;28;20478;-45
2022/10/08 02:46:45;;;;;;;5.00;2.35;;;11.10;99.90;;;;;;5089535;28;20032;-47
2022/10/08 02:49:22;;;;;;;8.52;2.55;;;11.20;99.90;;;;;;5091264;28;20445;-44
2022/10/08 02:51:50;;;;;;;6.43;2.55;;;11.00;99.90;;;;;;5090976;28;20044;-45
2022/10/08 02:54:22;;;;;;;9.70;2.60;;;11.00;99.90;;;;;;5091087;28;20036;-44
2022/10/08 02:56:57;;;;;;;8.85;2.97;;;11.20;99.90;;;;;;5090283;28;20076;-42
2022/10/08 02:59:24;;;;;;;8.73;2.70;;;11.30;99.90;;;;;;5090915;28;20115;-47
2022/10/08 03:01:57;;;;;;;9.45;2.80;;;11.20;99.90;;;;;;5091018;28;20043;-42
2022/10/08 03:04:26;;;;;;;9.88;2.42;;;11.20;99.90;;;;;;5091031;28;20085;-45
2022/10/08 03:06:52;;;;;;;7.40;3.15;;;11.00;99.90;;;;;;5090202;28;20122;-43
2022/10/08 03:09:21;;;;;;;6.45;2.70;;;11.00;99.90;;;;;;5089712;28;20399;-48
2022/10/08 03:11:47;;;;;;;14.68;2.83;;;10.90;99.90;;;;;;5090359;28;20043;-44
2022/10/08 03:14:16;;;;;;;7.78;2.63;;;11.20;99.90;;;;;;5090402;28;20050;-46
2022/10/08 03:16:44;;;;;;;9.75;2.88;;;10.80;99.90;;;;;;5090606;28;20060;-47
2022/10/08 03:19:13;;;;;;;7.97;2.78;;;10.80;99.90;;;;;;5090969;28;20535;-43
2022/10/08 03:21:40;;;;;;;8.98;2.83;;;10.80;99.90;;;;;;5090698;28;20505;-43
2022/10/08 03:24:08;;;;;;;5.68;2.58;;;10.60;99.90;;;;;;5090394;28;20362;-46
2022/10/08 03:26:34;;;;;;;9.93;2.80;;;10.70;99.90;;;;;;5090297;28;20407;-44
2022/10/08 03:28:59;;;;;;;9.52;2.67;;;10.80;99.90;;;;;;5090296;28;20055;-45
2022/10/08 03:31:25;;;;;;;15.63;3.97;;;10.50;99.90;;;;;;5090198;28;20036;-47
2022/10/08 03:33:52;;;;;;;9.43;2.78;;;10.50;99.90;;;;;;5088807;28;20051;-44
2022/10/08 03:36:20;;;;;;;8.95;3.28;;;10.80;99.90;;;;;;5090028;28;20036;-47
2022/10/08 03:38:46;;;;;;;9.70;2.88;;;10.70;99.90;;;;;;5089590;28;20103;-44
2022/10/08 03:41:12;;;;;;;10.50;3.20;;;10.50;99.90;;;;;;5090205;28;20428;-41
2022/10/08 03:43:38;;;;;;;8.38;3.38;;;10.50;99.90;;;;;;5090475;28;20048;-44
2022/10/08 03:46:04;;;;;;;11.57;3.40;;;10.80;99.90;;;;;;5089055;28;20476;-46
2022/10/08 03:48:30;;;;;;;10.80;3.25;;;10.50;99.90;;;;;;5090079;28;20046;-45
2022/10/08 03:50:58;;;;;;;11.60;3.30;;;10.50;99.90;;;;;;5089611;28;20123;-48
2022/10/08 03:53:24;;;;;;;8.30;3.30;;;10.60;99.90;;;;;;5090229;28;20137;-45
2022/10/08 03:55:50;;;;;;;7.97;3.63;;;10.80;99.90;;;;;;5090126;28;20036;-45
2022/10/08 03:58:16;;;;;;;11.32;3.65;;;10.50;99.90;;;;;;5090227;28;20123;-44
2022/10/08 04:00:43;;;;;;;7.85;3.42;;;10.80;99.90;;;;;;5090311;28;20043;-47
2022/10/08 04:03:08;;;;;;;13.70;3.67;;;10.50;99.90;;;;;;5089932;28;20540;-45
2022/10/08 04:05:34;;;;;;;12.32;3.45;;;10.70;99.90;;;;;;5088526;28;20040;-45
2022/10/08 04:08:03;;;;;;;9.32;3.60;;;10.90;99.90;;;;;;5090136;28;20050;-44
2022/10/08 04:10:28;;;;;;;9.50;3.55;;;10.80;99.90;;;;;;5090088;28;20097;-46
2022/10/08 04:12:54;;;;;;;12.20;3.88;;;10.70;99.90;;;;;;5090027;28;20040;-43
2022/10/08 04:15:20;;;;;;;9.68;3.40;;;10.70;99.90;;;;;;5090035;28;20052;-45
2022/10/08 04:17:45;;;;;;;9.77;3.30;;;10.90;99.90;;;;;;5090159;28;20034;-46
2022/10/08 04:20:11;;;;;;;12.45;3.42;;;11.00;99.90;;;;;;5089844;28;20522;-43
2022/10/08 04:22:37;;;;;;;11.77;3.15;;;11.10;99.90;;;;;;5090017;28;20089;-47
2022/10/08 04:25:02;;;;;;;11.23;3.28;;;11.00;99.90;;;;;;5089702;28;20028;-46
2022/10/08 04:27:28;;;;;;;13.05;3.20;;;11.00;99.90;;;;;;5089603;28;20070;-43
2022/10/08 04:29:54;;;;;;;8.55;3.30;;;11.00;99.90;;;;;;5089458;28;20040;-42
2022/10/08 04:32:19;;;;;;;10.00;3.55;;;10.70;99.90;;;;;;5089686;28;20056;-45
2022/10/08 04:34:45;;;;;;;8.20;3.25;;;10.70;99.90;;;;;;5088143;28;20035;-44
2022/10/08 04:37:10;;;;;;;8.52;3.50;;;11.00;99.90;;;;;;5089982;28;20032;-42
2022/10/08 04:39:36;;;;;;;9.68;3.10;;;11.00;99.90;;;;;;5089876;28;20475;-47
2022/10/08 04:42:02;;;;;;;6.65;3.00;;;10.90;99.90;;;;;;5089711;28;20036;-43
2022/10/08 04:44:27;;;;;;;10.00;3.03;;;10.70;99.90;;;;;;5071763;28;20048;-44
2022/10/08 04:46:53;;;;;;;10.93;3.22;;;10.90;99.90;;;;;;5089575;28;20063;-44
2022/10/08 04:49:19;;;;;;;8.48;3.55;;;10.80;99.90;;;;;;5089508;28;20046;-44
2022/10/08 04:51:44;;;;;;;8.20;3.40;;;10.70;99.90;;;;;;5092392;28;20456;-47
2022/10/08 04:54:10;;;;;;;10.75;3.40;;;10.60;99.90;;;;;;5093276;28;20040;-43
2022/10/08 04:56:36;;;;;;;8.20;3.65;;;10.60;99.90;;;;;;5093431;28;20476;-46
2022/10/08 04:59:02;;;;;;;10.73;4.20;;;10.70;99.90;;;;;;5093311;28;20119;-44
2022/10/08 05:01:29;;;;;;;13.50;3.72;;;10.50;99.90;;;;;;5093210;28;20043;-42
2022/10/08 05:03:56;;;;;;;12.55;3.75;;;10.80;99.90;;;;;;5092799;28;20036;-47
2022/10/08 05:06:26;;;;;;;9.40;3.67;;;10.70;99.90;;;;;;5092810;28;20479;-43
2022/10/08 05:08:53;;;;;;;6.93;3.35;;;10.40;99.90;;;;;;5093403;28;21287;-46
2022/10/08 05:11:21;;;;;;;10.18;3.63;;;10.40;99.90;;;;;;5091753;28;20040;-43
2022/10/08 05:13:52;;;;;;;10.93;3.42;;;10.40;99.90;;;;;;5093121;28;20131;-46
2022/10/08 05:16:18;;;;;;;10.57;4.18;;;10.40;99.90;;;;;;5091314;28;20052;-47
2022/10/08 05:18:45;;;;;;;9.65;3.72;;;10.30;99.90;;;;;;5092926;28;20072;-48
2022/10/08 05:21:13;;;;;;;10.18;3.65;;;10.60;99.90;;;;;;5092420;28;20044;-44
2022/10/08 05:23:41;;;;;;;14.75;4.20;;;10.20;99.90;;;;;;5092737;28;20036;-46
2022/10/08 05:26:30;;;;;;;9.85;4.32;;;10.20;99.90;;;;;;5093130;28;20043;-44
2022/10/08 05:28:58;;;;;;;11.45;4.30;;;10.40;99.90;;;;;;5091377;28;20040;-46
2022/10/08 05:31:26;;;;;;;12.00;4.28;;;10.40;99.90;;;;;;5092450;28;20491;-48
2022/10/08 05:33:52;;;;;;;14.82;4.82;;;10.40;99.90;;;;;;5092402;28;20038;-44
2022/10/08 05:36:30;;;;;;;13.10;4.78;;;10.30;99.90;;;;;;5092103;28;20493;-45
2022/10/08 05:38:59;;;;;;;10.50;4.50;;;10.40;99.90;;;;;;5092606;28;20134;-45
2022/10/08 05:41:30;;;;;;;10.02;4.47;;;10.10;99.90;;;;;;5092566;28;20480;-43
2022/10/08 05:43:57;;;;;;;14.00;4.85;;;10.30;99.90;;;;;;5092285;28;20036;-43
2022/10/08 05:46:25;;;;;;;9.73;4.43;;;10.30;99.90;;;;;;5092152;28;20540;-47
2022/10/08 05:48:52;;;;;;;9.23;4.97;;;10.00;99.90;;;;;;5090753;28;20032;-45
2022/10/08 05:51:19;;;;;;;14.75;5.30;;;10.00;99.90;;;;;;5092282;28;20040;-44
2022/10/08 05:53:47;;;;;;;10.40;4.47;;;10.30;99.90;;;;;;5092175;28;20364;-43
2022/10/08 05:56:15;;;;;;;11.48;4.85;;;10.00;99.90;;;;;;5091868;28;20036;-44
2022/10/08 05:58:42;;;;;;;13.13;4.85;;;10.10;99.90;;;;;;5092129;28;20040;-47
2022/10/08 06:01:21;;;;;;;10.60;5.18;;;9.90;99.90;;;;;;5092141;28;20044;-44
2022/10/08 06:03:49;;;;;;;14.20;5.40;;;9.90;99.90;;;;;;5091644;28;20044;-46
2022/10/08 06:06:15;;;;;;;18.08;5.47;;;10.10;99.90;;;;;;5091481;28;20482;-46
2022/10/08 06:08:40;;;;;;;15.05;4.82;;;9.90;99.90;;;;;;5090465;28;20177;-42
2022/10/08 06:11:06;;;;;;;15.15;5.05;;;9.90;99.90;;;;;;5091521;28;20070;-42
2022/10/08 06:13:32;;;;;;;13.45;5.22;;;10.10;99.90;;;;;;5091883;28;20116;-43
2022/10/08 06:16:01;;;;;;;15.68;5.40;;;9.90;99.90;;;;;;5091602;28;20036;-45
2022/10/08 06:18:30;;;;;;;14.05;5.75;;;9.90;99.90;;;;;;5090314;28;20032;-44
2022/10/08 06:20:56;;;;;;;12.43;4.93;;;9.90;99.90;;;;;;5091751;28;20465;-46
2022/10/08 06:23:23;;;;;;;13.98;5.57;;;9.80;99.90;;;;;;5091676;28;20040;-46
2022/10/08 06:25:49;;;;;;;13.80;5.55;;;10.10;99.90;;;;;;5091770;28;20553;-45
2022/10/08 06:28:15;;;;;;;13.43;5.30;;;10.10;99.90;;;;;;5091435;28;20155;-44
2022/10/08 06:30:41;;;;;;;12.68;5.32;;;10.10;99.90;;;;;;5090812;28;20051;-45
2022/10/08 06:33:08;;;;;;;14.73;5.60;;;10.00;99.90;;;;;;5091245;28;20046;-44
2022/10/08 06:35:35;;;;;;;14.02;5.57;;;10.30;99.90;;;;;;5090842;28;20043;-43
2022/10/08 06:38:02;;;;;;;13.55;4.65;;;10.40;99.90;;;;;;5091395;28;20115;-44
2022/10/08 06:40:31;;;;;;;18.38;5.13;;;10.10;99.90;;;;;;5091014;28;20127;-45
2022/10/08 06:42:57;;;;;;;14.13;5.43;;;10.10;99.90;;;;;;5089944;28;20124;-44
2022/10/08 06:45:22;;;;;;;13.13;4.88;;;10.40;99.90;;;;;;5091436;28;20039;-44
2022/10/08 06:47:48;;;;;;;12.35;4.63;;;10.30;99.90;;;;;;5091278;28;20036;-44
2022/10/08 06:50:14;;;;;;;13.38;5.28;;;10.40;99.90;;;;;;5091015;28;20040;-46
2022/10/08 06:52:39;;;;;;;12.57;4.35;;;10.20;99.90;;;;;;5091210;28;20039;-46
2022/10/08 06:55:05;;;;;;;16.02;4.95;;;10.30;99.90;;;;;;5089508;28;20115;-45
2022/10/08 06:57:31;;;;;;;12.25;4.57;;;10.70;99.90;;;;;;5090937;28;20040;-45
2022/10/08 06:59:57;;;;;;;13.50;4.35;;;10.50;99.90;;;;;;5091113;28;20135;-43
2022/10/08 07:02:24;;;;;;;12.82;3.90;;;10.60;99.90;;;;;;5090878;28;20040;-45
2022/10/08 07:04:49;;;;;;;14.65;3.78;;;10.60;99.90;;;;;;5090975;28;20479;-44
2022/10/08 07:07:15;;;;;;;13.05;3.92;;;10.90;99.90;;;;;;5090504;28;20043;-46
2022/10/08 07:09:41;;;;;;;13.60;3.22;;;11.20;99.90;;;;;;5090777;28;20044;-46
2022/10/08 07:12:06;;;;;;;12.00;3.20;;;11.00;99.90;;;;;;5090723;28;20044;-45
2022/10/08 07:14:32;;;;;;;12.70;3.05;;;11.10;99.90;;;;;;5088708;28;20028;-44
2022/10/08 07:16:57;;;;;;;13.05;2.92;;;11.40;99.90;;;;;;5090382;28;20036;-45
2022/10/08 07:19:23;;;;;;;14.73;3.15;;;11.20;99.90;;;;;;5089517;28;20028;-43
2022/10/08 07:21:49;;;;;;;13.48;3.33;;;11.40;99.90;;;;;;5072352;28;20044;-44
2022/10/08 07:24:14;;;;;;;11.85;2.72;;;11.20;99.90;;;;;;5090555;28;20043;-45
2022/10/08 07:26:40;;;;;;;12.23;2.60;;;11.50;99.90;;;;;;5089253;28;20497;-42
2022/10/08 07:29:11;;;;;;;14.75;2.75;;;11.20;99.90;;;;;;5090305;28;20083;-43
2022/10/08 07:31:38;;;;;;;11.45;2.42;;;11.30;99.90;;;;;;5090422;28;20475;-43
2022/10/08 07:34:10;;;;;;;11.50;2.50;;;11.40;99.90;;;;;;5088905;28;20036;-44
2022/10/08 07:36:36;;;;;;;12.88;2.65;;;11.20;99.90;;;;;;5089969;28;20487;-44
2022/10/08 07:39:13;;;;;;;13.55;2.60;;;11.40;99.90;;;;;;5089228;28;20112;-43
2022/10/08 07:41:39;;;;;;;13.57;2.42;;;11.40;99.90;;;;;;5090025;28;20136;-45
2022/10/08 07:44:05;;;;;;;15.40;2.55;;;11.60;99.90;;;;;;5090077;28;20101;-43
2022/10/08 07:46:36;;;;;;;10.38;2.45;;;11.60;99.90;;;;;;5090402;28;20040;-45
2022/10/08 07:49:03;;;;;;;14.00;2.67;;;11.70;99.90;;;;;;5090159;28;20032;-45
2022/10/08 07:51:30;;;;;;;10.27;2.47;;;11.70;99.90;;;;;;5089863;28;20058;-45
2022/10/08 07:53:57;;;;;;;15.43;2.55;;;12.00;99.90;;;;;;5090194;28;20044;-45
2022/10/08 07:56:24;;;;;;;9.82;2.00;;;12.10;99.90;;;;;;5090187;28;20105;-47
2022/10/08 07:58:50;;;;;;;10.98;2.28;;;12.00;99.90;;;;;;5090177;28;20043;-44
2022/10/08 08:01:20;;;;;;;16.63;1.98;;;12.00;99.90;;;;;;5090344;28;20406;-45
2022/10/08 08:03:50;;;;;;;10.50;1.38;;;12.30;99.90;;;;;;5090220;28;20442;-48
2022/10/08 08:06:16;;;;;;;10.32;1.50;;;12.10;99.90;;;;;;5089752;28;20036;-45
2022/10/08 08:08:43;;;;;;;8.70;1.55;;;12.50;99.90;;;;;;5088557;28;20062;-44
2022/10/08 08:11:11;;;;;;;8.93;1.38;;;12.30;99.90;;;;;;5090125;28;20051;-44
2022/10/08 08:13:39;;;;;;;9.75;1.42;;;12.50;99.90;;;;;;5090136;28;20043;-46
2022/10/08 08:16:13;;;;;;;9.63;1.45;;;12.50;99.90;;;;;;5090128;28;20036;-42
2022/10/08 08:18:41;;;;;;;12.18;2.13;;;12.50;99.90;;;;;;5089431;28;20471;-44
2022/10/08 08:21:12;;;;;;;11.48;1.58;;;12.60;99.90;;;;;;5089667;28;20047;-43
2022/10/08 08:23:41;;;;;;;8.20;1.27;;;12.70;99.90;;;;;;5089788;28;20372;-43
2022/10/08 08:26:18;;;;;;;9.60;1.38;;;12.70;99.90;;;;;;5091961;28;20044;-44
2022/10/08 08:28:44;;;;;;;8.80;1.48;;;12.90;99.90;;;;;;5094037;28;20036;-42
2022/10/08 08:31:22;;;;;;;9.55;1.60;;;12.80;99.90;;;;;;5093417;28;20096;-43
2022/10/08 08:33:49;;;;;;;6.63;1.00;;;13.00;99.90;;;;;;5093358;28;20044;-44
2022/10/08 08:36:17;;;;;;;7.63;1.48;;;12.90;99.90;;;;;;5092184;28;20048;-48
2022/10/08 08:38:43;;;;;;;8.35;1.23;;;13.00;99.90;;;;;;5093604;28;20190;-45
2022/10/08 08:41:30;;;;;;;7.57;1.20;;;13.10;99.90;;;;;;5093689;28;20599;-47
2022/10/08 08:44:07;;;;;;;9.95;1.83;;;13.20;99.90;;;;;;5093512;28;20044;-46
2022/10/08 08:46:39;;;;;;;7.88;1.10;;;13.20;99.90;;;;;;5093675;28;20028;-45
2022/10/08 08:49:30;;;;;;;8.93;1.80;;;13.20;99.90;;;;;;5093194;28;20036;-46
2022/10/08 08:51:58;;;;;;;10.15;1.25;;;13.20;99.90;;;;;;5093037;28;20067;-44
2022/10/08 08:54:24;;;;;;;6.93;1.40;;;13.30;99.90;;;;;;5093479;28;20538;-49
2022/10/08 08:56:51;;;;;;;7.82;1.70;;;13.40;99.90;;;;;;5093514;28;20190;-44
2022/10/08 08:59:20;;;;;;;8.27;1.42;;;13.30;99.90;;;;;;5093277;28;20040;-46
2022/10/08 09:01:47;;;;;;;5.60;1.17;;;13.50;99.90;;;;;;5092937;28;20089;-47
2022/10/08 09:04:38;;;;;;;8.07;1.52;;;13.60;99.90;;;;;;5091530;28;20044;-45
2022/10/08 09:07:10;;;;;;;10.43;1.27;;;13.70;99.90;;;;;;5092440;28;20042;-44
2022/10/08 09:09:45;;;;;;;8.57;1.70;;;13.80;99.90;;;;;;5093172;28;20040;-46
2022/10/08 09:12:26;;;;;;;7.50;1.20;;;13.80;99.90;;;;;;5092992;28;20433;-43
2022/10/08 09:14:57;;;;;;;9.38;1.65;;;14.00;99.90;;;;;;5093024;28;20043;-44
2022/10/08 09:17:37;;;;;;;8.88;1.73;;;14.10;99.90;;;;;;5093059;28;20068;-45
2022/10/08 09:20:03;;;;;;;6.70;1.60;;;14.10;99.90;;;;;;5093009;28;20032;-47
2022/10/08 09:22:34;;;;;;;6.82;1.50;;;14.20;99.90;;;;;;5092951;28;20028;-47
2022/10/08 09:25:13;;;;;;;7.05;1.45;;;14.40;99.90;;;;;;5092980;28;20402;-47
2022/10/08 09:27:59;;;;;;;9.20;1.42;;;14.40;99.90;;;;;;5092980;28;20089;-45
2022/10/08 09:30:31;;;;;;;7.80;1.55;;;14.40;99.90;;;;;;5092312;28;20060;-46
2022/10/08 09:32:59;;;;;;;7.50;1.40;;;14.60;99.90;;;;;;5092916;28;20536;-45
2022/10/08 09:35:25;;;;;;;7.35;1.65;;;14.70;99.90;;;;;;5092130;28;20039;-44
2022/10/08 09:37:52;;;;;;;6.80;1.58;;;14.70;99.90;;;;;;5091871;28;20111;-45
2022/10/08 09:40:23;;;;;;;8.02;1.30;;;14.70;99.90;;;;;;5092022;28;20028;-49
2022/10/08 09:43:09;;;;;;;6.88;1.42;;;14.60;99.90;;;;;;5092568;28;20046;-47
2022/10/08 09:45:44;;;;;;;6.15;1.40;;;14.50;99.90;;;;;;5092520;28;20119;-45
2022/10/08 09:48:16;;;;;;;8.38;1.55;;;14.50;99.90;;;;;;5092446;28;20510;-47
2022/10/08 09:50:59;;;;;;;6.75;1.20;;;14.70;99.90;;;;;;5091906;28;20118;-46
2022/10/08 09:53:47;;;;;;;8.95;1.73;;;14.70;99.90;;;;;;5092148;28;20036;-44
2022/10/08 09:56:14;;;;;;;8.10;1.58;;;14.70;99.90;;;;;;5090216;28;20093;-45
2022/10/08 09:59:01;;;;;;;7.75;1.33;;;14.70;99.90;;;;;;5092124;28;20105;-47
2022/10/08 10:01:30;;;;;;;8.88;1.38;;;14.80;99.90;;;;;;5091836;28;20040;-44
2022/10/08 10:04:01;;;;;;;8.57;1.70;;;14.90;99.90;;;;;;5092110;28;20042;-46
2022/10/08 10:06:32;;;;;;;7.28;1.90;;;15.10;99.90;;;;;;5091762;28;20032;-44
2022/10/08 10:09:09;;;;;;;10.63;1.55;;;15.30;99.90;;;;;;5092174;28;20036;-47
2022/10/08 10:11:42;;;;;;;5.93;1.20;;;15.50;99.90;;;;;;5091308;28;20044;-48
2022/10/08 10:14:26;;;;;;;7.88;1.40;;;15.60;99.90;;;;;;5091976;28;20036;-45
2022/10/08 10:16:59;;;;;;;;;;;15.80;99.90;;;;;;5092364;28;20032;-46
2022/10/08 10:19:31;;;;;;;6.78;1.40;;;15.50;99.90;;;;;;5091846;28;19916;-47
2022/10/08 10:22:11;;;;;;;7.38;1.35;;;15.30;99.90;;;;;;5090241;28;20032;-48
2022/10/08 10:24:47;;;;;;;5.03;1.30;;;14.90;99.90;;;;;;5091957;28;20379;-44
2022/10/08 10:27:38;;;;;;;7.60;1.60;;;14.80;99.90;;;;;;5091710;28;20039;-45
2022/10/08 10:30:20;;;;;;;8.05;1.38;;;15.20;99.90;;;;;;5091550;28;20044;-47
2022/10/08 10:33:16;;;;;;;8.75;1.48;;;15.60;99.90;;;;;;5090253;28;20040;-44
2022/10/08 10:35:52;;;;;;;6.82;0.95;;;15.90;99.90;;;;;;5091266;28;20548;-49
2022/10/08 10:38:27;;;;;;;6.90;1.13;;;16.00;99.90;;;;;;5091242;28;20040;-43
2022/10/08 10:41:23;;;;;;;7.35;1.38;;;16.10;99.90;;;;;;5091352;28;20036;-46
2022/10/08 10:43:59;;;;;;;5.53;1.08;;;16.30;99.90;;;;;;5090195;28;20079;-44
2022/10/08 10:46:40;;;;;;;5.85;1.13;;;16.50;99.90;;;;;;5091140;28;20089;-50
2022/10/08 10:49:37;;;;;;;8.73;1.58;;;16.60;99.90;;;;;;5091233;28;20067;-48
2022/10/08 10:52:08;;;;;;;7.45;1.30;;;16.80;99.90;;;;;;5087352;28;20036;-45
2022/10/08 10:54:40;;;;;;;7.20;1.20;;;16.60;99.90;;;;;;5089854;28;20434;-45
2022/10/08 10:57:25;;;;;;;8.93;1.38;;;16.50;99.90;;;;;;5090770;28;20119;-44
2022/10/08 11:00:26;;;;;;;9.82;1.67;;;16.00;99.90;;;;;;5091076;28;20114;-46
2022/10/08 11:03:01;;;;;;;7.32;1.38;;;15.60;99.90;;;;;;5089398;28;20032;-46
2022/10/08 11:05:31;;;;;;;6.10;1.10;;;15.50;99.90;;;;;;5089735;28;20429;-44
2022/10/08 11:08:15;;;;;;;7.30;1.30;;;15.40;99.90;;;;;;5091220;28;20055;-44
2022/10/08 11:10:50;;;;;;;7.65;1.50;;;15.50;99.90;;;;;;5090839;28;20386;-44
2022/10/08 11:13:21;;;;;;;7.82;1.45;;;15.70;99.90;;;;;;5090855;28;20048;-45
2022/10/08 11:16:14;;;;;;;7.32;1.30;;;15.90;99.90;;;;;;5090564;28;20043;-44
2022/10/08 11:18:42;;;;;;;6.60;1.33;;;16.20;99.90;;;;;;5090707;28;20104;-45
2022/10/08 11:21:51;;;;;;;7.90;1.25;;;16.40;99.90;;;;;;5090860;28;20040;-46
2022/10/08 11:24:23;;;;;;;7.78;1.30;;;16.60;99.90;;;;;;5090107;28;20111;-46
2022/10/08 11:26:48;;;;;;;5.07;1.15;;;16.70;99.90;;;;;;5090758;28;20040;-50
2022/10/08 11:29:47;;;;;;;7.63;1.45;;;16.80;99.90;;;;;;5089930;28;20470;-46
2022/10/08 11:32:16;;;;;;;4.13;0.80;;;17.00;99.90;;;;;;5090261;28;20040;-43
2022/10/08 11:35:08;;;;;;;7.05;1.10;;;16.90;99.90;;;;;;5090478;28;20071;-43
2022/10/08 11:37:51;;;;;;;7.97;1.30;;;17.00;99.90;;;;;;5089544;28;20459;-46
2022/10/08 11:40:35;;;;;;;7.40;1.30;;;17.20;99.90;;;;;;5090531;28;20043;-45
2022/10/08 11:43:09;;;;;;;5.78;1.10;;;17.10;99.90;;;;;;5090283;28;20046;-44
2022/10/08 11:45:38;;;;;;;6.80;1.02;;;17.00;99.90;;;;;;5090527;28;20055;-45
2022/10/08 11:48:30;;;;;;;7.10;1.10;;;17.30;99.90;;;;;;5090252;28;20035;-46
2022/10/08 11:51:17;;;;;;;7.00;1.15;;;17.50;99.90;;;;;;5090265;28;20040;-45
2022/10/08 11:54:15;;;;;;;7.45;1.02;;;17.60;99.90;;;;;;5089722;28;20120;-48
2022/10/08 11:56:50;;;;;;;6.75;1.40;;;17.70;99.90;;;;;;5089048;28;20086;-47
2022/10/08 11:59:19;;;;;;;7.85;1.80;;;17.70;99.90;;;;;;5090478;28;20040;-49
2022/10/08 12:01:54;;;;;;;8.73;1.02;;;17.60;99.90;;;;;;5093550;28;20063;-48
2022/10/08 12:04:33;;;;;;;5.53;1.00;;;17.60;99.90;;;;;;5094416;28;20051;-49
2022/10/08 12:07:20;;;;;;;6.40;1.25;;;17.70;99.90;;;;;;5092821;28;20036;-47
2022/10/08 12:10:23;;;;;;;5.72;1.20;;;17.70;99.90;;;;;;5092776;28;20119;-48
2022/10/08 12:12:49;;;;;;;5.35;1.20;;;17.80;99.90;;;;;;5075873;28;20035;-47
2022/10/08 12:15:23;;;;;;;6.53;1.10;;;17.90;99.90;;;;;;5093790;28;20051;-46
2022/10/08 12:18:22;;;;;;;5.00;1.00;;;18.00;99.90;;;;;;5093922;28;20040;-45
2022/10/08 12:21:16;;;;;;;5.70;0.80;;;18.20;99.90;;;;;;5084454;28;20039;-44
2022/10/08 12:23:42;;;;;;;5.45;1.00;;;18.20;99.90;;;;;;5093793;28;20032;-49
2022/10/08 12:26:11;;;;;;;7.25;0.95;;;18.10;99.90;;;;;;5094109;28;20036;-49
2022/10/08 12:28:40;;;;;;;9.13;1.20;;;18.20;99.90;;;;;;5093749;28;20165;-49
2022/10/08 12:31:27;;;;;;;6.85;0.80;;;18.20;99.90;;;;;;5093317;28;20051;-46
2022/10/08 12:34:02;;;;;;;7.05;1.08;;;18.40;99.90;;;;;;5093837;28;20234;-46
2022/10/08 12:36:35;;;;;;;5.55;1.20;;;18.40;99.90;;;;;;5093448;28;20040;-50
2022/10/08 12:39:13;;;;;;;8.00;1.35;;;18.60;99.90;;;;;;5093853;28;20436;-50
2022/10/08 12:42:00;;;;;;;6.85;1.27;;;18.70;99.90;;;;;;5093673;28;20093;-43
2022/10/08 12:44:44;;;;;;;6.88;1.15;;;18.50;99.90;;;;;;5092097;28;20036;-48
2022/10/08 12:47:54;;;;;;;8.70;1.20;;;18.80;99.90;;;;;;5093341;28;20039;-47
2022/10/08 12:50:29;;;;;;;5.97;1.33;;;18.90;99.90;;;;;;5030829;28;20432;-44
2022/10/08 12:52:58;;;;;;;6.20;1.27;;;18.90;99.90;;;;;;5030764;28;20075;-44
2022/10/08 12:55:24;;;;;;;7.28;1.10;;;18.80;99.90;;;;;;5067699;28;20116;-46
2022/10/08 12:57:51;;;;;;;7.25;1.10;;;18.80;99.90;;;;;;5093432;28;20676;-46
2022/10/08 13:00:17;;;;;;;6.35;1.20;;;18.80;99.90;;;;;;5093335;28;20178;-45
2022/10/08 13:02:43;;;;;;;9.00;1.20;;;19.00;99.90;;;;;;5092994;28;20469;-47
2022/10/08 13:05:42;;;;;;;7.05;1.20;;;19.10;99.90;;;;;;5093264;28;20360;-44
2022/10/08 13:08:26;;;;;;;6.47;1.30;;;19.10;99.90;;;;;;5057875;28;20119;-43
2022/10/08 13:10:52;;;;;;;9.07;1.15;;;18.80;99.90;;;;;;5093242;28;20456;-46